sensor_id;sensor_type;location;lat;lon;timestamp;P1;durP1;ratioP1;P2;durP2;ratioP2
58238;SDS011;44037;55.638;37.356;2023-04-01T00:02:03;26.52;;;13.48;;
58238;SDS011;44037;55.638;37.356;2023-04-01T00:04:30;27.75;;;15.50;;
58238;SDS011;44037;55.638;37.356;2023-04-01T00:06:57;27.48;;;13.27;;
58238;SDS011;44037;55.638;37.356;2023-04-01T00:09:24;22.98;;;12.07;;
58238;SDS011;44037;55.638;37.356;2023-04-01T00:11:51;17.17;;;11.90;;
58238;SDS011;44037;55.638;37.356;2023-04-01T00:14:19;18.55;;;11.18;;
58238;SDS011;44037;55.638;37.356;2023-04-01T00:16:47;22.13;;;11.65;;
58238;SDS011;44037;55.638;37.356;2023-04-01T00:19:14;20.52;;;10.73;;
58238;SDS011;44037;55.638;37.356;2023-04-01T00:21:41;24.00;;;11.90;;
58238;SDS011;44037;55.638;37.356;2023-04-01T00:24:08;20.40;;;11.77;;
58238;SDS011;44037;55.638;37.356;2023-04-01T00:26:35;22.17;;;12.57;;
58238;SDS011;44037;55.638;37.356;2023-04-01T00:29:03;20.98;;;11.32;;
58238;SDS011;44037;55.638;37.356;2023-04-01T00:31:30;23.98;;;12.10;;
58238;SDS011;44037;55.638;37.356;2023-04-01T00:33:59;20.70;;;11.52;;
58238;SDS011;44037;55.638;37.356;2023-04-01T00:36:26;18.27;;;11.18;;
58238;SDS011;44037;55.638;37.356;2023-04-01T00:38:53;20.30;;;10.45;;
58238;SDS011;44037;55.638;37.356;2023-04-01T00:41:20;20.48;;;11.88;;
58238;SDS011;44037;55.638;37.356;2023-04-01T00:43:48;19.55;;;10.88;;
58238;SDS011;44037;55.638;37.356;2023-04-01T00:46:16;19.55;;;11.43;;
58238;SDS011;44037;55.638;37.356;2023-04-01T00:48:46;18.63;;;11.07;;
58238;SDS011;44037;55.638;37.356;2023-04-01T00:51:17;19.17;;;11.00;;
58238;SDS011;44037;55.638;37.356;2023-04-01T00:53:48;17.63;;;10.77;;
58238;SDS011;44037;55.638;37.356;2023-04-01T00:56:18;18.23;;;10.48;;
58238;SDS011;44037;55.638;37.356;2023-04-01T00:58:49;20.27;;;10.60;;
58238;SDS011;44037;55.638;37.356;2023-04-01T01:01:21;20.02;;;12.15;;
58238;SDS011;44037;55.638;37.356;2023-04-01T01:03:50;19.58;;;12.30;;
58238;SDS011;44037;55.638;37.356;2023-04-01T01:06:22;19.33;;;12.38;;
58238;SDS011;44037;55.638;37.356;2023-04-01T01:11:43;19.20;;;11.90;;
58238;SDS011;44037;55.638;37.356;2023-04-01T01:14:21;18.98;;;12.05;;
58238;SDS011;44037;55.638;37.356;2023-04-01T01:16:57;21.08;;;12.88;;
58238;SDS011;44037;55.638;37.356;2023-04-01T01:19:38;21.80;;;13.25;;
58238;SDS011;44037;55.638;37.356;2023-04-01T01:25:18;18.65;;;11.60;;
58238;SDS011;44037;55.638;37.356;2023-04-01T01:28:00;20.08;;;11.57;;
58238;SDS011;44037;55.638;37.356;2023-04-01T01:30:43;18.02;;;11.07;;
58238;SDS011;44037;55.638;37.356;2023-04-01T01:33:24;15.18;;;10.45;;
58238;SDS011;44037;55.638;37.356;2023-04-01T01:36:03;20.23;;;10.82;;
58238;SDS011;44037;55.638;37.356;2023-04-01T01:38:34;17.92;;;9.68;;
58238;SDS011;44037;55.638;37.356;2023-04-01T01:41:02;19.55;;;10.10;;
58238;SDS011;44037;55.638;37.356;2023-04-01T01:43:32;17.70;;;9.98;;
58238;SDS011;44037;55.638;37.356;2023-04-01T01:46:03;17.42;;;10.07;;
58238;SDS011;44037;55.638;37.356;2023-04-01T01:48:34;21.58;;;12.05;;
58238;SDS011;44037;55.638;37.356;2023-04-01T01:51:04;23.25;;;11.90;;
58238;SDS011;44037;55.638;37.356;2023-04-01T01:53:32;20.48;;;12.10;;
58238;SDS011;44037;55.638;37.356;2023-04-01T01:55:59;21.77;;;11.93;;
58238;SDS011;44037;55.638;37.356;2023-04-01T01:58:27;19.38;;;11.98;;
58238;SDS011;44037;55.638;37.356;2023-04-01T02:01:00;20.45;;;12.60;;
58238;SDS011;44037;55.638;37.356;2023-04-01T02:03:31;19.88;;;12.65;;
58238;SDS011;44037;55.638;37.356;2023-04-01T02:06:03;20.80;;;12.25;;
58238;SDS011;44037;55.638;37.356;2023-04-01T02:08:34;19.58;;;11.25;;
58238;SDS011;44037;55.638;37.356;2023-04-01T02:11:04;20.38;;;12.57;;
58238;SDS011;44037;55.638;37.356;2023-04-01T02:13:35;21.00;;;11.77;;
58238;SDS011;44037;55.638;37.356;2023-04-01T02:16:08;19.30;;;11.43;;
58238;SDS011;44037;55.638;37.356;2023-04-01T02:18:41;18.13;;;10.40;;
58238;SDS011;44037;55.638;37.356;2023-04-01T02:21:13;20.50;;;11.27;;
58238;SDS011;44037;55.638;37.356;2023-04-01T02:23:41;14.38;;;8.38;;
58238;SDS011;44037;55.638;37.356;2023-04-01T02:26:09;17.63;;;9.27;;
58238;SDS011;44037;55.638;37.356;2023-04-01T02:28:37;21.20;;;9.32;;
58238;SDS011;44037;55.638;37.356;2023-04-01T02:31:07;20.50;;;9.52;;
58238;SDS011;44037;55.638;37.356;2023-04-01T02:33:36;14.90;;;9.32;;
58238;SDS011;44037;55.638;37.356;2023-04-01T02:36:05;16.10;;;8.38;;
58238;SDS011;44037;55.638;37.356;2023-04-01T02:38:38;14.38;;;8.05;;
58238;SDS011;44037;55.638;37.356;2023-04-01T02:41:06;15.48;;;8.90;;
58238;SDS011;44037;55.638;37.356;2023-04-01T02:43:33;14.48;;;8.57;;
58238;SDS011;44037;55.638;37.356;2023-04-01T02:46:00;13.75;;;9.10;;
58238;SDS011;44037;55.638;37.356;2023-04-01T02:48:27;18.48;;;8.93;;
58238;SDS011;44037;55.638;37.356;2023-04-01T02:50:55;17.38;;;9.00;;
58238;SDS011;44037;55.638;37.356;2023-04-01T02:53:23;20.50;;;9.25;;
58238;SDS011;44037;55.638;37.356;2023-04-01T02:55:51;15.40;;;8.45;;
58238;SDS011;44037;55.638;37.356;2023-04-01T02:58:18;18.33;;;10.23;;
58238;SDS011;44037;55.638;37.356;2023-04-01T03:00:45;16.25;;;8.60;;
58238;SDS011;44037;55.638;37.356;2023-04-01T03:03:12;16.88;;;9.63;;
58238;SDS011;44037;55.638;37.356;2023-04-01T03:05:40;16.13;;;9.30;;
58238;SDS011;44037;55.638;37.356;2023-04-01T03:08:07;14.68;;;8.30;;
58238;SDS011;44037;55.638;37.356;2023-04-01T03:10:34;16.05;;;9.30;;
58238;SDS011;44037;55.638;37.356;2023-04-01T03:13:02;15.93;;;8.60;;
58238;SDS011;44037;55.638;37.356;2023-04-01T03:15:29;21.63;;;9.70;;
58238;SDS011;44037;55.638;37.356;2023-04-01T03:17:57;15.60;;;8.98;;
58238;SDS011;44037;55.638;37.356;2023-04-01T03:20:24;16.02;;;9.45;;
58238;SDS011;44037;55.638;37.356;2023-04-01T03:22:51;18.48;;;8.93;;
58238;SDS011;44037;55.638;37.356;2023-04-01T03:25:18;24.90;;;10.68;;
58238;SDS011;44037;55.638;37.356;2023-04-01T03:27:45;20.30;;;9.75;;
58238;SDS011;44037;55.638;37.356;2023-04-01T03:30:14;19.40;;;9.70;;
58238;SDS011;44037;55.638;37.356;2023-04-01T03:32:41;17.45;;;9.57;;
58238;SDS011;44037;55.638;37.356;2023-04-01T03:35:08;16.77;;;9.23;;
58238;SDS011;44037;55.638;37.356;2023-04-01T03:37:36;19.95;;;9.90;;
58238;SDS011;44037;55.638;37.356;2023-04-01T03:40:04;16.73;;;8.95;;
58238;SDS011;44037;55.638;37.356;2023-04-01T03:42:32;17.13;;;10.68;;
58238;SDS011;44037;55.638;37.356;2023-04-01T03:45:00;18.55;;;10.27;;
58238;SDS011;44037;55.638;37.356;2023-04-01T03:47:30;18.23;;;9.77;;
58238;SDS011;44037;55.638;37.356;2023-04-01T03:49:57;24.45;;;12.38;;
58238;SDS011;44037;55.638;37.356;2023-04-01T03:52:24;21.23;;;10.18;;
58238;SDS011;44037;55.638;37.356;2023-04-01T03:54:51;19.90;;;9.85;;
58238;SDS011;44037;55.638;37.356;2023-04-01T03:57:18;17.40;;;9.75;;
58238;SDS011;44037;55.638;37.356;2023-04-01T03:59:45;18.95;;;11.38;;
58238;SDS011;44037;55.638;37.356;2023-04-01T04:02:12;23.77;;;10.57;;
58238;SDS011;44037;55.638;37.356;2023-04-01T04:04:41;21.15;;;10.63;;
58238;SDS011;44037;55.638;37.356;2023-04-01T04:07:08;18.35;;;9.90;;
58238;SDS011;44037;55.638;37.356;2023-04-01T04:09:35;17.30;;;10.60;;
58238;SDS011;44037;55.638;37.356;2023-04-01T04:12:02;17.40;;;10.35;;
58238;SDS011;44037;55.638;37.356;2023-04-01T04:14:30;19.85;;;10.60;;
58238;SDS011;44037;55.638;37.356;2023-04-01T04:16:57;17.42;;;9.90;;
58238;SDS011;44037;55.638;37.356;2023-04-01T04:19:24;19.50;;;9.63;;
58238;SDS011;44037;55.638;37.356;2023-04-01T04:21:53;15.48;;;8.98;;
58238;SDS011;44037;55.638;37.356;2023-04-01T04:24:20;20.05;;;9.88;;
58238;SDS011;44037;55.638;37.356;2023-04-01T04:26:47;18.75;;;10.27;;
58238;SDS011;44037;55.638;37.356;2023-04-01T04:29:14;21.27;;;10.23;;
58238;SDS011;44037;55.638;37.356;2023-04-01T04:31:41;17.67;;;10.25;;
58238;SDS011;44037;55.638;37.356;2023-04-01T04:34:08;19.52;;;10.70;;
58238;SDS011;44037;55.638;37.356;2023-04-01T04:36:35;19.50;;;10.70;;
58238;SDS011;44037;55.638;37.356;2023-04-01T04:39:04;17.17;;;10.57;;
58238;SDS011;44037;55.638;37.356;2023-04-01T04:41:31;16.58;;;9.85;;
58238;SDS011;44037;55.638;37.356;2023-04-01T04:43:58;21.52;;;10.77;;
58238;SDS011;44037;55.638;37.356;2023-04-01T04:46:25;21.17;;;10.35;;
58238;SDS011;44037;55.638;37.356;2023-04-01T04:48:52;23.55;;;10.80;;
58238;SDS011;44037;55.638;37.356;2023-04-01T04:51:19;18.77;;;10.40;;
58238;SDS011;44037;55.638;37.356;2023-04-01T04:53:47;18.77;;;11.25;;
58238;SDS011;44037;55.638;37.356;2023-04-01T04:56:18;20.23;;;11.23;;
58238;SDS011;44037;55.638;37.356;2023-04-01T04:58:46;20.25;;;10.63;;
58238;SDS011;44037;55.638;37.356;2023-04-01T05:01:15;15.35;;;9.60;;
58238;SDS011;44037;55.638;37.356;2023-04-01T05:03:43;19.75;;;11.80;;
58238;SDS011;44037;55.638;37.356;2023-04-01T05:06:11;23.02;;;12.02;;
58238;SDS011;44037;55.638;37.356;2023-04-01T05:08:40;19.35;;;11.40;;
58238;SDS011;44037;55.638;37.356;2023-04-01T05:11:09;22.20;;;12.65;;
58238;SDS011;44037;55.638;37.356;2023-04-01T05:13:40;20.13;;;10.90;;
58238;SDS011;44037;55.638;37.356;2023-04-01T05:16:08;20.92;;;11.63;;
58238;SDS011;44037;55.638;37.356;2023-04-01T05:18:36;23.35;;;11.65;;
58238;SDS011;44037;55.638;37.356;2023-04-01T05:21:03;19.92;;;11.57;;
58238;SDS011;44037;55.638;37.356;2023-04-01T05:23:31;20.67;;;11.88;;
58238;SDS011;44037;55.638;37.356;2023-04-01T05:25:58;24.60;;;12.10;;
58238;SDS011;44037;55.638;37.356;2023-04-01T05:28:28;23.15;;;12.57;;
58238;SDS011;44037;55.638;37.356;2023-04-01T05:30:57;21.30;;;13.02;;
58238;SDS011;44037;55.638;37.356;2023-04-01T05:33:25;20.73;;;11.15;;
58238;SDS011;44037;55.638;37.356;2023-04-01T05:35:52;22.25;;;12.25;;
58238;SDS011;44037;55.638;37.356;2023-04-01T05:38:19;22.13;;;11.52;;
58238;SDS011;44037;55.638;37.356;2023-04-01T05:40:47;21.58;;;12.18;;
58238;SDS011;44037;55.638;37.356;2023-04-01T05:43:14;25.08;;;12.38;;
58238;SDS011;44037;55.638;37.356;2023-04-01T05:45:41;21.35;;;11.13;;
58238;SDS011;44037;55.638;37.356;2023-04-01T05:48:10;28.23;;;15.05;;
58238;SDS011;44037;55.638;37.356;2023-04-01T05:50:37;28.25;;;14.93;;
58238;SDS011;44037;55.638;37.356;2023-04-01T05:53:06;26.10;;;14.70;;
58238;SDS011;44037;55.638;37.356;2023-04-01T05:55:34;28.38;;;15.32;;
58238;SDS011;44037;55.638;37.356;2023-04-01T05:58:01;31.05;;;15.38;;
58238;SDS011;44037;55.638;37.356;2023-04-01T06:00:28;28.85;;;15.10;;
58238;SDS011;44037;55.638;37.356;2023-04-01T06:02:58;27.83;;;14.73;;
58238;SDS011;44037;55.638;37.356;2023-04-01T06:05:27;23.35;;;13.00;;
58238;SDS011;44037;55.638;37.356;2023-04-01T06:07:55;34.85;;;16.23;;
58238;SDS011;44037;55.638;37.356;2023-04-01T06:10:28;27.50;;;15.13;;
58238;SDS011;44037;55.638;37.356;2023-04-01T06:13:04;31.35;;;16.05;;
58238;SDS011;44037;55.638;37.356;2023-04-01T06:15:39;33.17;;;17.58;;
58238;SDS011;44037;55.638;37.356;2023-04-01T06:18:28;25.02;;;11.57;;
58238;SDS011;44037;55.638;37.356;2023-04-01T06:21:10;26.27;;;12.95;;
58238;SDS011;44037;55.638;37.356;2023-04-01T06:24:03;27.48;;;16.90;;
58238;SDS011;44037;55.638;37.356;2023-04-01T06:26:44;25.83;;;13.88;;
58238;SDS011;44037;55.638;37.356;2023-04-01T06:29:23;25.38;;;12.75;;
58238;SDS011;44037;55.638;37.356;2023-04-01T06:32:20;28.13;;;12.85;;
58238;SDS011;44037;55.638;37.356;2023-04-01T06:40:55;28.67;;;14.85;;
58238;SDS011;44037;55.638;37.356;2023-04-01T06:43:39;30.95;;;15.45;;
58238;SDS011;44037;55.638;37.356;2023-04-01T06:46:17;30.17;;;15.57;;
58238;SDS011;44037;55.638;37.356;2023-04-01T06:48:57;26.45;;;15.50;;
58238;SDS011;44037;55.638;37.356;2023-04-01T06:51:34;26.67;;;15.88;;
58238;SDS011;44037;55.638;37.356;2023-04-01T06:54:09;32.42;;;17.25;;
58238;SDS011;44037;55.638;37.356;2023-04-01T06:56:43;24.67;;;15.07;;
58238;SDS011;44037;55.638;37.356;2023-04-01T06:59:15;25.35;;;14.90;;
58238;SDS011;44037;55.638;37.356;2023-04-01T07:01:47;31.58;;;16.73;;
58238;SDS011;44037;55.638;37.356;2023-04-01T07:04:18;30.55;;;16.45;;
58238;SDS011;44037;55.638;37.356;2023-04-01T07:06:50;25.17;;;15.43;;
58238;SDS011;44037;55.638;37.356;2023-04-01T07:09:21;29.45;;;15.77;;
58238;SDS011;44037;55.638;37.356;2023-04-01T07:11:55;27.35;;;15.73;;
58238;SDS011;44037;55.638;37.356;2023-04-01T07:14:28;26.85;;;15.15;;
58238;SDS011;44037;55.638;37.356;2023-04-01T07:16:59;29.45;;;15.63;;
58238;SDS011;44037;55.638;37.356;2023-04-01T07:19:31;28.90;;;16.02;;
58238;SDS011;44037;55.638;37.356;2023-04-01T07:22:03;30.45;;;15.90;;
58238;SDS011;44037;55.638;37.356;2023-04-01T07:24:33;27.05;;;15.93;;
58238;SDS011;44037;55.638;37.356;2023-04-01T07:27:05;28.75;;;15.50;;
58238;SDS011;44037;55.638;37.356;2023-04-01T07:29:35;29.80;;;17.35;;
58238;SDS011;44037;55.638;37.356;2023-04-01T07:34:55;29.38;;;16.88;;
58238;SDS011;44037;55.638;37.356;2023-04-01T07:37:34;29.10;;;16.27;;
58238;SDS011;44037;55.638;37.356;2023-04-01T07:40:14;28.60;;;17.23;;
58238;SDS011;44037;55.638;37.356;2023-04-01T07:42:59;26.67;;;16.08;;
58238;SDS011;44037;55.638;37.356;2023-04-01T07:45:38;29.52;;;17.52;;
58238;SDS011;44037;55.638;37.356;2023-04-01T07:48:18;30.35;;;16.27;;
58238;SDS011;44037;55.638;37.356;2023-04-01T07:53:24;24.70;;;15.70;;
58238;SDS011;44037;55.638;37.356;2023-04-01T07:55:57;30.58;;;16.45;;
58238;SDS011;44037;55.638;37.356;2023-04-01T07:58:33;25.17;;;14.48;;
58238;SDS011;44037;55.638;37.356;2023-04-01T08:01:11;23.27;;;12.50;;
58238;SDS011;44037;55.638;37.356;2023-04-01T08:03:51;25.00;;;13.90;;
58238;SDS011;44037;55.638;37.356;2023-04-01T08:06:31;24.13;;;11.93;;
58238;SDS011;44037;55.638;37.356;2023-04-01T08:09:05;22.75;;;12.35;;
58238;SDS011;44037;55.638;37.356;2023-04-01T08:11:46;23.10;;;11.63;;
58238;SDS011;44037;55.638;37.356;2023-04-01T08:14:26;23.52;;;12.15;;
58238;SDS011;44037;55.638;37.356;2023-04-01T08:17:01;21.05;;;11.43;;
58238;SDS011;44037;55.638;37.356;2023-04-01T08:19:36;22.65;;;12.82;;
58238;SDS011;44037;55.638;37.356;2023-04-01T08:22:19;26.50;;;14.07;;
58238;SDS011;44037;55.638;37.356;2023-04-01T08:24:52;26.17;;;14.68;;
58238;SDS011;44037;55.638;37.356;2023-04-01T08:27:26;23.85;;;12.77;;
58238;SDS011;44037;55.638;37.356;2023-04-01T08:30:04;18.92;;;12.15;;
58238;SDS011;44037;55.638;37.356;2023-04-01T08:32:42;21.25;;;13.48;;
58238;SDS011;44037;55.638;37.356;2023-04-01T08:35:14;19.42;;;11.43;;
58238;SDS011;44037;55.638;37.356;2023-04-01T08:37:50;15.98;;;9.85;;
58238;SDS011;44037;55.638;37.356;2023-04-01T08:43:23;18.73;;;10.48;;
58238;SDS011;44037;55.638;37.356;2023-04-01T08:46:21;15.88;;;9.68;;
58238;SDS011;44037;55.638;37.356;2023-04-01T08:49:10;16.10;;;10.15;;
58238;SDS011;44037;55.638;37.356;2023-04-01T08:51:52;18.20;;;9.32;;
58238;SDS011;44037;55.638;37.356;2023-04-01T08:54:42;16.20;;;9.93;;
58238;SDS011;44037;55.638;37.356;2023-04-01T08:57:21;14.90;;;9.05;;
58238;SDS011;44037;55.638;37.356;2023-04-01T09:00:03;13.20;;;9.10;;
58238;SDS011;44037;55.638;37.356;2023-04-01T09:09:22;13.95;;;8.50;;
58238;SDS011;44037;55.638;37.356;2023-04-01T09:15:20;12.65;;;6.60;;
58238;SDS011;44037;55.638;37.356;2023-04-01T09:18:09;11.95;;;8.27;;
58238;SDS011;44037;55.638;37.356;2023-04-01T09:21:06;17.98;;;11.23;;
58238;SDS011;44037;55.638;37.356;2023-04-01T09:26:44;13.70;;;7.78;;
58238;SDS011;44037;55.638;37.356;2023-04-01T09:29:37;13.25;;;7.57;;
58238;SDS011;44037;55.638;37.356;2023-04-01T09:32:20;10.40;;;6.97;;
58238;SDS011;44037;55.638;37.356;2023-04-01T09:35:10;10.98;;;7.03;;
58238;SDS011;44037;55.638;37.356;2023-04-01T09:37:52;9.45;;;6.50;;
58238;SDS011;44037;55.638;37.356;2023-04-01T09:40:28;11.18;;;6.78;;
58238;SDS011;44037;55.638;37.356;2023-04-01T09:43:13;10.25;;;7.20;;
58238;SDS011;44037;55.638;37.356;2023-04-01T09:45:53;8.10;;;6.03;;
58238;SDS011;44037;55.638;37.356;2023-04-01T09:48:45;11.70;;;6.65;;
58238;SDS011;44037;55.638;37.356;2023-04-01T09:51:27;9.77;;;5.47;;
58238;SDS011;44037;55.638;37.356;2023-04-01T09:54:11;17.15;;;9.63;;
58238;SDS011;44037;55.638;37.356;2023-04-01T09:56:52;10.80;;;6.95;;
58238;SDS011;44037;55.638;37.356;2023-04-01T09:59:47;16.40;;;7.82;;
58238;SDS011;44037;55.638;37.356;2023-04-01T10:14:34;8.75;;;5.15;;
58238;SDS011;44037;55.638;37.356;2023-04-01T10:17:41;9.98;;;5.70;;
58238;SDS011;44037;55.638;37.356;2023-04-01T10:39:03;9.20;;;5.32;;
58238;SDS011;44037;55.638;37.356;2023-04-01T10:42:00;7.43;;;4.78;;
58238;SDS011;44037;55.638;37.356;2023-04-01T10:48:18;4.68;;;3.53;;
58238;SDS011;44037;55.638;37.356;2023-04-01T10:51:05;10.15;;;5.07;;
58238;SDS011;44037;55.638;37.356;2023-04-01T10:57:07;7.22;;;4.03;;
58238;SDS011;44037;55.638;37.356;2023-04-01T11:00:05;8.00;;;4.00;;
58238;SDS011;44037;55.638;37.356;2023-04-01T11:03:00;6.50;;;3.40;;
58238;SDS011;44037;55.638;37.356;2023-04-01T11:12:12;9.00;;;4.20;;
58238;SDS011;44037;55.638;37.356;2023-04-01T11:18:11;7.95;;;5.30;;
58238;SDS011;44037;55.638;37.356;2023-04-01T11:21:07;10.15;;;4.95;;
58238;SDS011;44037;55.638;37.356;2023-04-01T11:26:51;9.07;;;4.10;;
58238;SDS011;44037;55.638;37.356;2023-04-01T11:32:20;7.72;;;4.78;;
58238;SDS011;44037;55.638;37.356;2023-04-01T11:35:00;6.47;;;4.03;;
58238;SDS011;44037;55.638;37.356;2023-04-01T11:37:50;7.88;;;4.43;;
58238;SDS011;44037;55.638;37.356;2023-04-01T11:40:29;11.85;;;5.43;;
58238;SDS011;44037;55.638;37.356;2023-04-01T11:43:06;8.40;;;3.92;;
58238;SDS011;44037;55.638;37.356;2023-04-01T11:45:43;6.53;;;4.15;;
58238;SDS011;44037;55.638;37.356;2023-04-01T11:48:20;6.45;;;4.35;;
58238;SDS011;44037;55.638;37.356;2023-04-01T11:51:10;8.10;;;4.40;;
58238;SDS011;44037;55.638;37.356;2023-04-01T11:54:00;8.75;;;4.47;;
58238;SDS011;44037;55.638;37.356;2023-04-01T11:56:44;6.93;;;3.85;;
58238;SDS011;44037;55.638;37.356;2023-04-01T12:02:34;6.88;;;4.05;;
58238;SDS011;44037;55.638;37.356;2023-04-01T12:05:18;9.38;;;3.88;;
58238;SDS011;44037;55.638;37.356;2023-04-01T12:10:48;11.63;;;7.20;;
58238;SDS011;44037;55.638;37.356;2023-04-01T12:13:28;6.65;;;4.22;;
58238;SDS011;44037;55.638;37.356;2023-04-01T12:16:08;5.13;;;3.80;;
58238;SDS011;44037;55.638;37.356;2023-04-01T12:18:46;6.40;;;3.90;;
58238;SDS011;44037;55.638;37.356;2023-04-01T12:21:22;8.32;;;4.22;;
58238;SDS011;44037;55.638;37.356;2023-04-01T12:27:12;10.65;;;6.35;;
58238;SDS011;44037;55.638;37.356;2023-04-01T12:33:04;13.63;;;6.45;;
58238;SDS011;44037;55.638;37.356;2023-04-01T12:35:54;9.55;;;4.25;;
58238;SDS011;44037;55.638;37.356;2023-04-01T12:38:30;6.78;;;4.38;;
58238;SDS011;44037;55.638;37.356;2023-04-01T12:41:04;12.20;;;8.07;;
58238;SDS011;44037;55.638;37.356;2023-04-01T12:43:52;24.02;;;11.68;;
58238;SDS011;44037;55.638;37.356;2023-04-01T12:46:32;7.85;;;4.40;;
58238;SDS011;44037;55.638;37.356;2023-04-01T12:49:20;9.45;;;4.63;;
58238;SDS011;44037;55.638;37.356;2023-04-01T12:52:01;13.23;;;5.43;;
58238;SDS011;44037;55.638;37.356;2023-04-01T12:57:33;11.50;;;4.43;;
58238;SDS011;44037;55.638;37.356;2023-04-01T13:00:18;7.13;;;4.68;;
58238;SDS011;44037;55.638;37.356;2023-04-01T13:03:02;11.50;;;4.50;;
58238;SDS011;44037;55.638;37.356;2023-04-01T13:05:49;8.85;;;4.45;;
58238;SDS011;44037;55.638;37.356;2023-04-01T13:08:43;7.07;;;4.53;;
58238;SDS011;44037;55.638;37.356;2023-04-01T13:11:20;7.55;;;5.25;;
58238;SDS011;44037;55.638;37.356;2023-04-01T13:14:10;9.95;;;5.30;;
58238;SDS011;44037;55.638;37.356;2023-04-01T13:16:50;7.55;;;5.55;;
58238;SDS011;44037;55.638;37.356;2023-04-01T13:19:25;9.88;;;5.80;;
58238;SDS011;44037;55.638;37.356;2023-04-01T13:22:00;11.35;;;6.43;;
58238;SDS011;44037;55.638;37.356;2023-04-01T13:24:36;11.85;;;6.13;;
58238;SDS011;44037;55.638;37.356;2023-04-01T13:27:14;12.63;;;6.57;;
58238;SDS011;44037;55.638;37.356;2023-04-01T13:29:57;12.00;;;6.28;;
58238;SDS011;44037;55.638;37.356;2023-04-01T13:32:34;9.50;;;6.30;;
58238;SDS011;44037;55.638;37.356;2023-04-01T13:35:10;9.13;;;5.97;;
58238;SDS011;44037;55.638;37.356;2023-04-01T13:38:03;14.40;;;6.68;;
58238;SDS011;44037;55.638;37.356;2023-04-01T13:40:52;12.93;;;7.65;;
58238;SDS011;44037;55.638;37.356;2023-04-01T13:43:28;19.85;;;10.85;;
58238;SDS011;44037;55.638;37.356;2023-04-01T13:46:06;19.70;;;10.50;;
58238;SDS011;44037;55.638;37.356;2023-04-01T13:48:51;13.65;;;8.18;;
58238;SDS011;44037;55.638;37.356;2023-04-01T13:51:52;12.90;;;6.70;;
58238;SDS011;44037;55.638;37.356;2023-04-01T13:54:36;9.35;;;6.30;;
58238;SDS011;44037;55.638;37.356;2023-04-01T13:57:24;10.88;;;6.95;;
58238;SDS011;44037;55.638;37.356;2023-04-01T14:00:06;10.80;;;6.72;;
58238;SDS011;44037;55.638;37.356;2023-04-01T14:05:55;15.38;;;7.53;;
58238;SDS011;44037;55.638;37.356;2023-04-01T14:11:30;12.05;;;7.47;;
58238;SDS011;44037;55.638;37.356;2023-04-01T14:14:04;15.05;;;7.63;;
58238;SDS011;44037;55.638;37.356;2023-04-01T14:20:00;11.77;;;8.35;;
58238;SDS011;44037;55.638;37.356;2023-04-01T14:22:46;12.23;;;6.93;;
58238;SDS011;44037;55.638;37.356;2023-04-01T14:25:33;11.68;;;7.32;;
58238;SDS011;44037;55.638;37.356;2023-04-01T14:28:16;12.88;;;7.07;;
58238;SDS011;44037;55.638;37.356;2023-04-01T14:30:55;12.38;;;7.10;;
58238;SDS011;44037;55.638;37.356;2023-04-01T14:33:42;14.32;;;7.20;;
58238;SDS011;44037;55.638;37.356;2023-04-01T14:36:25;14.13;;;8.05;;
58238;SDS011;44037;55.638;37.356;2023-04-01T14:39:15;11.15;;;7.38;;
58238;SDS011;44037;55.638;37.356;2023-04-01T14:41:57;14.02;;;7.85;;
58238;SDS011;44037;55.638;37.356;2023-04-01T14:44:52;17.27;;;9.35;;
58238;SDS011;44037;55.638;37.356;2023-04-01T14:47:44;12.90;;;7.77;;
58238;SDS011;44037;55.638;37.356;2023-04-01T14:50:17;11.55;;;7.63;;
58238;SDS011;44037;55.638;37.356;2023-04-01T14:52:49;16.15;;;9.25;;
58238;SDS011;44037;55.638;37.356;2023-04-01T14:55:34;14.63;;;9.25;;
58238;SDS011;44037;55.638;37.356;2023-04-01T14:58:12;18.25;;;10.05;;
58238;SDS011;44037;55.638;37.356;2023-04-01T15:00:48;14.00;;;8.75;;
58238;SDS011;44037;55.638;37.356;2023-04-01T15:03:24;11.77;;;8.13;;
58238;SDS011;44037;55.638;37.356;2023-04-01T15:05:56;19.30;;;12.68;;
58238;SDS011;44037;55.638;37.356;2023-04-01T15:08:41;13.85;;;9.00;;
58238;SDS011;44037;55.638;37.356;2023-04-01T15:11:23;16.10;;;9.52;;
58238;SDS011;44037;55.638;37.356;2023-04-01T15:13:59;14.23;;;9.05;;
58238;SDS011;44037;55.638;37.356;2023-04-01T15:16:41;11.50;;;8.10;;
58238;SDS011;44037;55.638;37.356;2023-04-01T15:19:19;12.43;;;8.00;;
58238;SDS011;44037;55.638;37.356;2023-04-01T15:21:59;15.27;;;8.57;;
58238;SDS011;44037;55.638;37.356;2023-04-01T15:24:48;18.90;;;8.73;;
58238;SDS011;44037;55.638;37.356;2023-04-01T15:27:27;16.42;;;8.85;;
58238;SDS011;44037;55.638;37.356;2023-04-01T15:30:16;22.20;;;8.50;;
58238;SDS011;44037;55.638;37.356;2023-04-01T15:32:51;18.77;;;9.27;;
58238;SDS011;44037;55.638;37.356;2023-04-01T15:35:35;13.63;;;8.07;;
58238;SDS011;44037;55.638;37.356;2023-04-01T15:38:12;16.27;;;7.82;;
58238;SDS011;44037;55.638;37.356;2023-04-01T15:40:49;25.60;;;10.07;;
58238;SDS011;44037;55.638;37.356;2023-04-01T15:43:27;33.20;;;10.77;;
58238;SDS011;44037;55.638;37.356;2023-04-01T15:46:25;23.75;;;9.45;;
58238;SDS011;44037;55.638;37.356;2023-04-01T15:49:02;16.73;;;9.25;;
58238;SDS011;44037;55.638;37.356;2023-04-01T15:57:36;11.93;;;7.80;;
58238;SDS011;44037;55.638;37.356;2023-04-01T16:00:21;14.85;;;8.90;;
58238;SDS011;44037;55.638;37.356;2023-04-01T16:02:54;11.60;;;7.93;;
58238;SDS011;44037;55.638;37.356;2023-04-01T16:05:43;12.40;;;7.85;;
58238;SDS011;44037;55.638;37.356;2023-04-01T16:08:25;15.88;;;9.30;;
58238;SDS011;44037;55.638;37.356;2023-04-01T16:11:12;18.95;;;10.48;;
58238;SDS011;44037;55.638;37.356;2023-04-01T16:13:48;20.05;;;11.32;;
58238;SDS011;44037;55.638;37.356;2023-04-01T16:16:28;14.88;;;9.27;;
58238;SDS011;44037;55.638;37.356;2023-04-01T16:19:22;13.48;;;8.13;;
58238;SDS011;44037;55.638;37.356;2023-04-01T16:22:01;16.25;;;9.65;;
58238;SDS011;44037;55.638;37.356;2023-04-01T16:24:33;16.52;;;11.18;;
58238;SDS011;44037;55.638;37.356;2023-04-01T16:27:06;19.40;;;12.48;;
58238;SDS011;44037;55.638;37.356;2023-04-01T16:29:41;22.65;;;13.27;;
58238;SDS011;44037;55.638;37.356;2023-04-01T16:32:35;29.40;;;16.02;;
58238;SDS011;44037;55.638;37.356;2023-04-01T16:35:15;30.35;;;16.08;;
58238;SDS011;44037;55.638;37.356;2023-04-01T16:37:59;33.83;;;20.88;;
58238;SDS011;44037;55.638;37.356;2023-04-01T16:40:36;25.67;;;14.98;;
58238;SDS011;44037;55.638;37.356;2023-04-01T16:43:14;20.25;;;13.95;;
58238;SDS011;44037;55.638;37.356;2023-04-01T16:45:51;20.15;;;12.25;;
58238;SDS011;44037;55.638;37.356;2023-04-01T16:48:27;16.67;;;11.80;;
58238;SDS011;44037;55.638;37.356;2023-04-01T16:51:01;14.30;;;8.52;;
58238;SDS011;44037;55.638;37.356;2023-04-01T16:56:10;14.98;;;9.27;;
58238;SDS011;44037;55.638;37.356;2023-04-01T16:58:41;13.63;;;8.75;;
58238;SDS011;44037;55.638;37.356;2023-04-01T17:01:16;12.90;;;8.48;;
58238;SDS011;44037;55.638;37.356;2023-04-01T17:03:51;14.60;;;8.90;;
58238;SDS011;44037;55.638;37.356;2023-04-01T17:06:26;13.27;;;9.73;;